Time;durP1;ratioP1;P1;durP2;ratioP2;P2;SDS_P1;SDS_P2;PMS_P1;PMS_P2;Temp;Humidity;BMP_temperature;BMP_pressure;BME280_temperature;BME280_humidity;BME280_pressure;Samples;Min_cycle;Max_cycle;Signal;HPM_P1;HPM_P2
2022/02/01 00:45:24;;;;;;;22.17;5.43;;;;;;;0.07;74.97;99447.89;714569;1174;114042;-83
2022/02/01 01:00:27;;;;;;;26.00;7.40;;;;;;;0.11;76.11;99462.27;713655;1174;114920;-82
2022/02/01 01:15:31;;;;;;;10.10;4.30;;;;;;;0.04;75.55;99488.50;713861;1174;113836;-81
2022/02/01 02:01:08;;;;;;;9.13;3.80;;;;;;;-0.06;76.37;99516.56;713616;1174;114895;-81
2022/02/01 02:16:11;;;;;;;14.68;4.70;;;;;;;-0.09;76.40;99504.67;713716;1174;115436;-83
2022/02/01 02:31:14;;;;;;;7.90;3.35;;;;;;;-0.10;75.78;99515.08;713796;1174;115046;-82
2022/02/01 02:46:26;;;;;;;6.83;3.35;;;;;;;-0.13;76.88;99512.66;713658;1174;114019;-83
2022/02/01 03:01:29;;;;;;;10.43;3.73;;;;;;;0.06;76.43;99497.81;713959;1174;115267;-82
2022/02/01 03:16:35;;;;;;;12.75;4.83;;;;;;;0.06;76.18;99486.67;713763;1174;114351;-83
2022/02/01 03:31:38;;;;;;;15.50;5.57;;;;;;;0.10;75.94;99480.42;713745;1174;114855;-82
2022/02/01 03:46:44;;;;;;;16.07;6.57;;;;;;;0.11;76.15;99482.91;713801;1174;115389;-83
2022/02/01 04:01:46;;;;;;;12.30;5.00;;;;;;;0.04;76.66;99498.81;713846;1174;114844;-82
2022/02/01 04:16:54;;;;;;;9.90;4.45;;;;;;;0.00;76.56;99495.60;714147;1174;114864;-80
2022/02/01 04:31:56;;;;;;;27.50;8.43;;;;;;;0.06;75.98;99508.13;714125;1174;113926;-83
2022/02/01 04:47:00;;;;;;;26.08;9.10;;;;;;;0.09;77.17;99507.97;713800;1174;114970;-83
2022/02/01 05:02:02;;;;;;;14.93;6.00;;;;;;;0.12;77.00;99497.47;713729;1174;114726;-83
2022/02/01 05:17:05;;;;;;;17.03;6.38;;;;;;;0.13;76.37;99493.98;713741;1174;115307;-83
2022/02/01 05:32:25;;;;;;;22.37;9.00;;;;;;;0.11;77.44;99485.48;714533;1174;114097;-81
2022/02/01 05:47:28;;;;;;;30.10;8.63;;;;;;;0.02;76.86;99475.70;714701;1174;113852;-81
2022/02/01 06:02:30;;;;;;;40.35;11.93;;;;;;;0.02;77.57;99474.88;714195;1174;115031;-82
2022/02/01 06:17:33;;;;;;;64.98;21.80;;;;;;;0.00;78.27;99490.44;713998;1174;114688;-81
2022/02/01 06:32:37;;;;;;;61.78;17.75;;;;;;;0.07;78.86;99488.34;714156;1173;115864;-80
2022/02/01 06:47:39;;;;;;;40.45;19.13;;;;;;;0.07;79.83;99475.45;714166;1174;113977;-82
2022/02/01 07:02:41;;;;;;;51.20;18.70;;;;;;;0.19;79.25;99468.75;714013;1174;118049;-82
2022/02/01 07:17:49;;;;;;;82.88;31.25;;;;;;;0.26;80.41;99439.08;714542;1174;113951;-80
2022/02/01 07:32:52;;;;;;;87.10;32.98;;;;;;;0.51;80.71;99441.03;714389;1174;114086;-78
2022/02/01 07:47:56;;;;;;;158.93;51.28;;;;;;;0.74;81.54;99441.39;714821;1174;114660;-82
2022/02/01 08:02:59;;;;;;;95.37;39.73;;;;;;;0.85;82.48;99433.02;715552;1174;114866;-80
2022/02/01 08:33:13;;;;;;;56.47;24.80;;;;;;;1.32;82.67;99452.49;714166;1175;114018;-75
2022/02/01 08:48:16;;;;;;;98.00;35.35;;;;;;;1.92;83.30;99437.48;714229;1174;114898;-75
2022/02/01 09:03:18;;;;;;;38.38;14.15;;;;;;;2.70;81.74;99430.56;715134;1174;115740;-76
2022/02/01 09:18:21;;;;;;;42.57;16.20;;;;;;;2.11;81.89;99418.96;716720;1174;114577;-75
2022/02/01 09:33:23;;;;;;;50.13;21.80;;;;;;;2.00;82.59;99417.91;714551;1174;115348;-76
2022/02/01 09:48:27;;;;;;;31.38;14.95;;;;;;;3.08;82.82;99394.19;714242;1173;114013;-77
2022/02/01 10:03:29;;;;;;;23.50;12.95;;;;;;;3.21;80.47;99382.94;714445;1174;115208;-78
2022/02/01 10:18:35;;;;;;;57.60;27.13;;;;;;;3.26;81.13;99370.47;714840;1174;113984;-79
2022/02/01 10:34:02;;;;;;;61.57;28.67;;;;;;;3.12;80.79;99351.56;715452;1174;116006;-78
2022/02/01 10:49:04;;;;;;;40.50;13.33;;;;;;;3.26;80.48;99309.11;718120;1173;114793;-77
2022/02/01 11:04:09;;;;;;;34.95;14.60;;;;;;;4.42;80.12;99265.81;716550;1174;114836;-76
2022/02/01 11:19:12;;;;;;;27.95;14.30;;;;;;;4.20;79.42;99240.70;714924;1174;114979;-77
2022/02/01 11:34:37;;;;;;;28.17;15.07;;;;;;;3.42;79.15;99240.54;715048;1170;114927;-79
2022/02/01 11:50:00;;;;;;;30.35;15.58;;;;;;;3.10;79.49;99210.92;714396;1174;114129;-79
2022/02/01 12:05:28;;;;;;;38.07;15.93;;;;;;;3.13;81.34;99179.58;715587;1174;113947;-75
2022/02/01 12:20:36;;;;;;;29.45;14.05;;;;;;;3.16;81.58;99158.61;717127;1174;115178;-77
2022/02/01 12:35:40;;;;;;;48.10;22.27;;;;;;;3.13;81.80;99132.12;714693;1174;114723;-76
2022/02/01 12:50:55;;;;;;;69.73;29.15;;;;;;;3.03;83.43;99087.91;714810;1174;113927;-75
2022/02/01 13:06:00;;;;;;;46.43;19.35;;;;;;;2.80;83.95;99048.22;714836;1174;114261;-76
2022/02/01 13:21:17;;;;;;;41.30;19.35;;;;;;;2.57;85.73;99008.50;715557;1174;114017;-75
2022/02/01 13:36:20;;;;;;;24.70;11.73;;;;;;;2.46;87.26;98989.41;715513;1176;115002;-75
2022/02/01 13:51:24;;;;;;;32.68;14.00;;;;;;;2.37;89.67;98953.87;714812;1174;117869;-75
2022/02/01 14:36:43;;;;;;;50.15;22.15;;;;;;;2.59;94.40;98872.80;714722;1174;115536;-73
2022/02/01 14:51:46;;;;;;;34.55;16.00;;;;;;;2.73;94.68;98861.39;715723;1174;116092;-73
2022/02/01 15:21:51;;;;;;;30.50;13.13;;;;;;;2.79;94.74;98818.64;714909;1176;114859;-73
2022/02/01 15:37:15;;;;;;;29.85;12.25;;;;;;;2.76;95.58;98796.39;714608;1174;114717;-73
2022/02/01 16:07:59;;;;;;;53.63;18.70;;;;;;;2.70;95.65;98763.20;715066;1174;115263;-74
2022/02/01 16:23:02;;;;;;;32.75;12.73;;;;;;;2.69;96.08;98714.94;714858;1175;114109;-74
2022/02/01 16:38:05;;;;;;;45.37;22.40;;;;;;;2.64;97.44;98679.07;714739;1173;114245;-74
2022/02/01 16:53:36;;;;;;;27.40;12.73;;;;;;;2.59;97.90;98667.45;714630;1174;114336;-72
2022/02/01 17:08:39;;;;;;;121.80;42.60;;;;;;;2.63;98.09;98617.87;715109;1174;115451;-74
2022/02/01 17:23:41;;;;;;;39.33;19.93;;;;;;;2.58;99.71;98586.34;714397;1174;114732;-74
2022/02/01 17:38:46;;;;;;;28.45;13.70;;;;;;;2.47;100.00;98558.76;714607;1174;115507;-75
2022/02/01 18:08:55;;;;;;;23.70;12.30;;;;;;;2.51;100.00;98466.14;714546;1174;114712;-74
2022/02/01 18:23:58;;;;;;;27.98;13.95;;;;;;;2.54;100.00;98406.33;714149;1174;115012;-74
2022/02/01 18:39:18;;;;;;;46.00;20.07;;;;;;;2.47;100.00;98368.98;714329;1174;114169;-75
2022/02/01 18:54:27;;;;;;;33.47;14.73;;;;;;;2.46;100.00;98338.88;714516;1174;115383;-75
2022/02/01 19:09:54;;;;;;;24.60;14.23;;;;;;;2.58;100.00;98287.81;714451;1174;114471;-76
2022/02/01 19:24:58;;;;;;;127.13;51.20;;;;;;;2.59;100.00;98263.57;714188;1174;115079;-76
2022/02/01 19:40:03;;;;;;;34.13;17.33;;;;;;;2.69;100.00;98206.61;714282;1174;114489;-77
2022/02/01 19:55:07;;;;;;;39.53;19.25;;;;;;;2.68;100.00;98185.09;715318;1174;115183;-75
2022/02/01 20:10:15;;;;;;;25.03;13.60;;;;;;;2.80;100.00;98132.19;715063;1174;114298;-74
2022/02/01 20:25:19;;;;;;;24.87;13.17;;;;;;;2.81;100.00;98113.12;714756;1167;114577;-75
2022/02/01 20:40:24;;;;;;;21.18;10.15;;;;;;;2.92;100.00;98081.05;714641;1174;114188;-74
2022/02/01 20:55:27;;;;;;;20.00;9.33;;;;;;;2.95;100.00;98056.65;714498;1174;115894;-75
2022/02/01 21:10:30;;;;;;;15.38;8.83;;;;;;;3.11;100.00;98041.30;715054;1177;114879;-75
2022/02/01 21:25:33;;;;;;;14.00;7.80;;;;;;;3.06;100.00;98002.08;715196;1174;115587;-76
2022/02/01 21:40:36;;;;;;;15.57;8.37;;;;;;;3.02;100.00;97961.05;714697;1174;114495;-75
2022/02/01 21:55:39;;;;;;;13.90;7.83;;;;;;;3.05;100.00;97933.09;714951;1174;114368;-75
2022/02/01 22:10:42;;;;;;;16.77;7.33;;;;;;;3.03;100.00;97921.24;715031;1177;114722;-72
2022/02/01 22:25:45;;;;;;;12.33;6.20;;;;;;;2.97;100.00;97901.92;714597;1174;114820;-72
2022/02/01 22:40:47;;;;;;;11.18;6.30;;;;;;;2.97;100.00;97878.61;715343;1174;115490;-73
2022/02/01 22:55:50;;;;;;;13.18;7.60;;;;;;;2.99;100.00;97867.12;715995;1174;115737;-73
2022/02/01 23:10:57;;;;;;;15.50;8.60;;;;;;;3.02;100.00;97844.48;714584;1174;114174;-72
2022/02/01 23:26:00;;;;;;;12.80;7.45;;;;;;;3.03;100.00;97830.58;714284;1174;114336;-73
2022/02/01 23:56:32;;;;;;;12.58;7.08;;;;;;;3.12;100.00;97820.13;713941;1174;113997;-72
